Dades meteomassalio
Diari Summary for Marc 2, 2017 Units:  Metric    English   Both
« Previous Day
Next Day »
Diari Semanal Mensual Anual Personalitzat
  Maxima: Minima: Mijana:
Temperatura: 19.3 °C 5.7 °C 11.7 °C
Rosada: 9.8 °C 3.8 °C 6.5 °C
Humitat: 88 % 44 % 73 %
Velocitat del vent: 20.4 km/h 0.0 km/h 2.6 km/h
Racha vent: 20.4 km/h - -
Vent:- - SE
Pressio: 1021.6 hPa 1016.1 hPa -
Pluja: 0.0 mm    
Historical Graphs
 
 
Tabular Data for Marc 2, 2017
Time Temperature Dew Point Pressure Wind Wind Speed Wind Gust Humidity Rainfall Rate (Hourly) solar Conditions
00:03 7.6 °C 5.4 °C 1020.2 hPa Calm     86 % 0.0 mm 0.0 W/m2 CLR
00:08 7.6 °C 5.4 °C 1020.2 hPa Calm     86 % 0.0 mm 0.0 W/m2 CLR
00:13 7.6 °C 5.2 °C 1020.2 hPa Calm     85 % 0.0 mm 0.0 W/m2 CLR
00:18 7.5 °C 5.2 °C 1020.2 hPa Calm     85 % 0.0 mm 0.0 W/m2 CLR
00:23 7.3 °C 4.9 °C 1020.2 hPa Calm     85 % 0.0 mm 0.0 W/m2 CLR
00:28 7.1 °C 4.9 °C 1020.2 hPa Calm     86 % 0.0 mm 0.0 W/m2 CLR
00:33 7.0 °C 4.8 °C 1020.2 hPa Calm     86 % 0.0 mm 0.0 W/m2 CLR
00:38 6.9 °C 4.8 °C 1020.2 hPa Calm     86 % 0.0 mm 0.0 W/m2 CLR
00:43 6.9 °C 4.9 °C 1020.5 hPa Calm     87 % 0.0 mm 0.0 W/m2 CLR
00:48 6.8 °C 4.8 °C 1020.2 hPa Calm     87 % 0.0 mm 0.0 W/m2 CLR
00:53 6.8 °C 4.8 °C 1020.2 hPa Calm     87 % 0.0 mm 0.0 W/m2 CLR
00:58 6.8 °C 4.8 °C 1020.2 hPa Calm     87 % 0.0 mm 0.0 W/m2 CLR
01:03 6.8 °C 5.0 °C 1020.5 hPa Calm     88 % 0.0 mm 0.0 W/m2 CLR
01:08 6.9 °C 5.1 °C 1020.5 hPa Calm     88 % 0.0 mm 0.0 W/m2 CLR
01:13 7.0 °C 5.2 °C 1020.5 hPa Calm     88 % 0.0 mm 0.0 W/m2 CLR
01:18 7.2 °C 5.3 °C 1020.5 hPa Calm     88 % 0.0 mm 0.0 W/m2 CLR
01:23 7.2 °C 5.2 °C 1020.5 hPa Calm     87 % 0.0 mm 0.0 W/m2 CLR
01:28 7.3 °C 5.3 °C 1020.5 hPa Calm     87 % 0.0 mm 0.0 W/m2 CLR
01:33 7.3 °C 5.3 °C 1020.5 hPa Calm     87 % 0.0 mm 0.0 W/m2 CLR
01:38 7.4 °C 5.4 °C 1020.5 hPa Calm     87 % 0.0 mm 0.0 W/m2 CLR
01:43 7.5 °C 5.5 °C 1020.5 hPa Calm     87 % 0.0 mm 0.0 W/m2 CLR
01:48 7.5 °C 5.5 °C 1020.5 hPa Calm     87 % 0.0 mm 0.0 W/m2 CLR
01:53 7.6 °C 5.6 °C 1020.9 hPa Calm     87 % 0.0 mm 0.0 W/m2 CLR
01:58 7.6 °C 5.6 °C 1020.9 hPa Calm     87 % 0.0 mm 0.0 W/m2 CLR
02:04 7.6 °C 5.6 °C 1020.5 hPa Calm     87 % 0.0 mm 0.0 W/m2 CLR
02:09 7.6 °C 5.6 °C 1020.9 hPa Calm     87 % 0.0 mm 0.0 W/m2 CLR
02:14 7.6 °C 5.6 °C 1020.5 hPa Calm     87 % 0.0 mm 0.0 W/m2 CLR
02:19 7.6 °C 5.6 °C 1020.9 hPa Calm     87 % 0.0 mm 0.0 W/m2 CLR
02:24 7.7 °C 5.7 °C 1020.9 hPa Calm     87 % 0.0 mm 0.0 W/m2 CLR
02:29 7.7 °C 5.7 °C 1020.5 hPa Calm     87 % 0.0 mm 0.0 W/m2 CLR
02:34 7.7 °C 5.7 °C 1020.9 hPa Calm     87 % 0.0 mm 0.0 W/m2 CLR
02:39 7.7 °C 5.7 °C 1020.9 hPa Calm     87 % 0.0 mm 0.0 W/m2 CLR
02:44 7.6 °C 5.4 °C 1020.9 hPa Calm     86 % 0.0 mm 0.0 W/m2 CLR
02:49 7.6 °C 5.6 °C 1020.9 hPa Calm     87 % 0.0 mm 0.0 W/m2 CLR
02:54 7.4 °C 5.4 °C 1020.9 hPa Calm     87 % 0.0 mm 0.0 W/m2 CLR
02:59 7.4 °C 5.4 °C 1020.5 hPa Calm     87 % 0.0 mm 0.0 W/m2 CLR
03:04 7.4 °C 5.4 °C 1020.5 hPa Calm     87 % 0.0 mm 0.0 W/m2 CLR
03:09 7.4 °C 5.6 °C 1020.5 hPa Calm     88 % 0.0 mm 0.0 W/m2 CLR
03:14 7.4 °C 5.6 °C 1020.5 hPa Calm     88 % 0.0 mm 0.0 W/m2 CLR
03:19 7.3 °C 5.3 °C 1020.5 hPa Calm     87 % 0.0 mm 0.0 W/m2 CLR
03:24 7.3 °C 5.5 °C 1020.2 hPa Calm     88 % 0.0 mm 0.0 W/m2 CLR
03:29 7.3 °C 5.5 °C 1020.2 hPa Calm     88 % 0.0 mm 0.0 W/m2 CLR
03:34 7.4 °C 5.6 °C 1020.2 hPa Calm     88 % 0.0 mm 0.0 W/m2 CLR
03:39 7.5 °C 5.7 °C 1020.2 hPa Calm     88 % 0.0 mm 0.0 W/m2 CLR
03:44 7.5 °C 5.5 °C 1020.2 hPa Calm     87 % 0.0 mm 0.0 W/m2 CLR
03:49 7.4 °C 5.4 °C 1019.9 hPa Calm     87 % 0.0 mm 0.0 W/m2 CLR
03:54 7.3 °C 5.3 °C 1019.9 hPa Calm     87 % 0.0 mm 0.0 W/m2 CLR
03:59 7.3 °C 5.3 °C 1019.9 hPa Calm     87 % 0.0 mm 0.0 W/m2 CLR
04:04 7.3 °C 5.3 °C 1019.9 hPa Calm     87 % 0.0 mm 0.0 W/m2 CLR
04:09 7.3 °C 5.3 °C 1019.9 hPa Calm     87 % 0.0 mm 0.0 W/m2 CLR
04:14 7.4 °C 5.4 °C 1019.9 hPa Calm     87 % 0.0 mm 0.0 W/m2 CLR
04:19 7.4 °C 5.4 °C 1019.9 hPa Calm     87 % 0.0 mm 0.0 W/m2 CLR
04:24 7.6 °C 5.4 °C 1019.9 hPa Calm     86 % 0.0 mm 0.0 W/m2 CLR
04:29 7.7 °C 5.5 °C 1019.9 hPa Calm     86 % 0.0 mm 0.0 W/m2 CLR
04:34 7.7 °C 5.3 °C 1019.9 hPa Calm     85 % 0.0 mm 0.0 W/m2 CLR
04:39 7.8 °C 5.6 °C 1019.9 hPa Calm     86 % 0.0 mm 0.0 W/m2 CLR
04:44 7.7 °C 5.3 °C 1019.9 hPa Calm     85 % 0.0 mm 0.0 W/m2 CLR
04:49 7.6 °C 5.2 °C 1019.9 hPa Calm     85 % 0.0 mm 0.0 W/m2 CLR
04:54 7.6 °C 5.2 °C 1019.9 hPa Calm     85 % 0.0 mm 0.0 W/m2 CLR
04:59 7.3 °C 5.0 °C 1019.9 hPa Calm     85 % 0.0 mm 0.0 W/m2 CLR
05:04 7.3 °C 5.2 °C 1019.9 hPa Calm     86 % 0.0 mm 0.0 W/m2 CLR
05:09 7.4 °C 5.2 °C 1019.9 hPa Calm     86 % 0.0 mm 0.0 W/m2 CLR
05:14 7.4 °C 5.2 °C 1019.9 hPa Calm     86 % 0.0 mm 0.0 W/m2 CLR
05:19 7.4 °C 5.2 °C 1019.9 hPa Calm     86 % 0.0 mm 0.0 W/m2 CLR
05:24 7.4 °C 5.2 °C 1019.9 hPa Calm     86 % 0.0 mm 0.0 W/m2 CLR
05:29 7.3 °C 5.2 °C 1019.9 hPa Calm     86 % 0.0 mm 0.0 W/m2 CLR
05:34 7.3 °C 4.9 °C 1019.9 hPa Calm     85 % 0.0 mm 0.0 W/m2 CLR
05:39 7.3 °C 5.1 °C 1019.9 hPa Calm     86 % 0.0 mm 0.0 W/m2 CLR
05:44 7.2 °C 5.1 °C 1019.9 hPa Calm     86 % 0.0 mm 0.0 W/m2 CLR
05:49 7.1 °C 4.9 °C 1019.9 hPa ENE 3.7 km/h 3.7 km/h 86 % 0.0 mm 0.0 W/m2 CLR
05:54 7.0 °C 4.8 °C 1020.2 hPa Calm     86 % 0.0 mm 0.0 W/m2 CLR
05:55 7.0 °C 4.8 °C 1019.9 hPa Calm     86 % 0.0 mm 0.0 W/m2 CLR
06:00 6.8 °C 4.5 °C 1019.9 hPa Calm     85 % 0.0 mm 0.0 W/m2 CLR
06:05 6.6 °C 4.4 °C 1020.2 hPa Calm     86 % 0.0 mm 0.0 W/m2 CLR
06:10 6.4 °C 4.4 °C 1020.2 hPa Calm     87 % 0.0 mm 0.0 W/m2 CLR
06:15 6.6 °C 4.7 °C 1020.2 hPa Calm     88 % 0.0 mm 0.0 W/m2 CLR
06:20 6.7 °C 4.7 °C 1020.2 hPa Calm     87 % 0.0 mm 0.0 W/m2 CLR
06:25 6.6 °C 4.4 °C 1020.2 hPa Calm     86 % 0.0 mm 0.0 W/m2 CLR
06:30 6.6 °C 4.6 °C 1020.2 hPa Calm     87 % 0.0 mm 0.0 W/m2 CLR
06:35 6.7 °C 4.7 °C 1020.2 hPa Calm     87 % 0.0 mm 0.0 W/m2 CLR
06:40 6.7 °C 4.7 °C 1020.2 hPa Calm     87 % 0.0 mm 0.0 W/m2 CLR
06:45 6.6 °C 4.4 °C 1020.2 hPa Calm     86 % 0.0 mm 0.0 W/m2 CLR
06:50 6.4 °C 4.4 °C 1020.2 hPa Calm     87 % 0.0 mm 0.0 W/m2 CLR
06:55 6.3 °C 4.2 °C 1020.2 hPa Calm     86 % 0.0 mm 0.0 W/m2 CLR
07:00 6.2 °C 4.2 °C 1020.2 hPa Calm     87 % 0.0 mm 0.0 W/m2 CLR
07:05 6.3 °C 4.5 °C 1020.2 hPa Calm     88 % 0.0 mm 0.0 W/m2 CLR
07:10 6.6 °C 4.7 °C 1020.2 hPa Calm     88 % 0.0 mm 0.0 W/m2 CLR
07:15 6.4 °C 4.2 °C 1020.5 hPa Calm     86 % 0.0 mm 0.0 W/m2 CLR
07:20 6.1 °C 3.9 °C 1020.5 hPa Calm     86 % 0.0 mm 0.0 W/m2 CLR
07:25 6.0 °C 4.0 °C 1020.5 hPa Calm     87 % 0.0 mm 0.0 W/m2 OVC
07:30 5.9 °C 3.9 °C 1020.5 hPa Calm     87 % 0.0 mm 0.0 W/m2 OVC
07:35 5.9 °C 3.9 °C 1020.5 hPa Calm     87 % 0.0 mm 0.0 W/m2 OVC
07:40 5.8 °C 3.8 °C 1020.5 hPa Calm     87 % 0.0 mm 7.0 W/m2 OVC
07:45 5.7 °C 3.9 °C 1020.5 hPa Calm     88 % 0.0 mm 11.0 W/m2 BKN
07:50 5.8 °C 3.9 °C 1020.5 hPa Calm     88 % 0.0 mm 14.0 W/m2 BKN
07:55 5.8 °C 4.0 °C 1020.5 hPa Calm     88 % 0.0 mm 18.0 W/m2 BKN
08:00 5.9 °C 4.1 °C 1020.9 hPa Calm     88 % 0.0 mm 23.0 W/m2 BKN
08:05 5.9 °C 4.1 °C 1020.9 hPa Calm     88 % 0.0 mm 40.0 W/m2 BKN
08:10 6.0 °C 4.2 °C 1020.9 hPa Calm     88 % 0.0 mm 56.0 W/m2 SCT
08:15 6.2 °C 4.4 °C 1020.9 hPa Calm     88 % 0.0 mm 81.0 W/m2 FEW
08:20 6.4 °C 4.6 °C 1020.9 hPa Calm     88 % 0.0 mm 62.0 W/m2 SCT
08:25 6.6 °C 4.6 °C 1020.9 hPa Calm     87 % 0.0 mm 69.0 W/m2 FEW
08:30 6.6 °C 4.6 °C 1021.2 hPa Calm     87 % 0.0 mm 77.0 W/m2 FEW
08:35 6.9 °C 4.9 °C 1020.9 hPa Calm     87 % 0.0 mm 130.0 W/m2 FEW
08:40 7.1 °C 4.9 °C 1020.9 hPa Calm     86 % 0.0 mm 167.0 W/m2 CLR
08:45 7.4 °C 5.4 °C 1020.9 hPa Calm     87 % 0.0 mm 114.0 W/m2 CLR
08:50 7.7 °C 5.3 °C 1021.2 hPa Calm     85 % 0.0 mm 127.0 W/m2 CLR
08:55 7.7 °C 5.1 °C 1021.2 hPa Calm     84 % 0.0 mm 113.0 W/m2 CLR
09:00 7.7 °C 5.3 °C 1021.2 hPa Calm     85 % 0.0 mm 118.0 W/m2 CLR
09:05 7.8 °C 5.4 °C 1021.2 hPa Calm     85 % 0.0 mm 123.0 W/m2 CLR
09:11 8.1 °C 5.7 °C 1021.2 hPa Calm     85 % 0.0 mm 118.0 W/m2 CLR
09:16 8.1 °C 5.7 °C 1021.2 hPa Calm     85 % 0.0 mm 123.0 W/m2 CLR
09:21 8.3 °C 5.9 °C 1021.2 hPa Calm     85 % 0.0 mm 125.0 W/m2 CLR
09:26 8.4 °C 6.1 °C 1021.2 hPa Calm     85 % 0.0 mm 130.0 W/m2 CLR
09:31 8.6 °C 6.1 °C 1021.2 hPa Calm     84 % 0.0 mm 139.0 W/m2 CLR
09:36 8.8 °C 6.3 °C 1021.2 hPa NNE 3.7 km/h 3.7 km/h 84 % 0.0 mm 151.0 W/m2 CLR
09:41 8.9 °C 6.4 °C 1021.6 hPa Calm     84 % 0.0 mm 183.0 W/m2 CLR
09:46 9.2 °C 6.7 °C 1021.6 hPa Calm     84 % 0.0 mm 211.0 W/m2 CLR
09:51 9.5 °C 6.8 °C 1021.6 hPa Calm     83 % 0.0 mm 204.0 W/m2 CLR
09:56 9.8 °C 6.9 °C 1021.6 hPa Calm     82 % 0.0 mm 214.0 W/m2 CLR
10:01 10.1 °C 7.0 °C 1021.6 hPa Calm     81 % 0.0 mm 315.0 W/m2 CLR
10:06 10.3 °C 7.1 °C 1021.6 hPa Calm     80 % 0.0 mm 313.0 W/m2 CLR
10:11 10.6 °C 7.2 °C 1021.6 hPa Calm     80 % 0.0 mm 239.0 W/m2 CLR
10:16 10.8 °C 7.3 °C 1021.6 hPa Calm     79 % 0.0 mm 262.0 W/m2 CLR
10:21 11.2 °C 7.7 °C 1021.6 hPa Calm     79 % 0.0 mm 267.0 W/m2 CLR
10:26 11.6 °C 7.8 °C 1021.6 hPa Calm     78 % 0.0 mm 287.0 W/m2 CLR
10:31 11.9 °C 7.8 °C 1021.2 hPa Calm     76 % 0.0 mm 297.0 W/m2 CLR
10:36 12.2 °C 7.7 °C 1021.6 hPa Calm     74 % 0.0 mm 367.0 W/m2 CLR
10:41 12.4 °C 7.9 °C 1021.6 hPa Calm     74 % 0.0 mm 388.0 W/m2 CLR
10:46 12.7 °C 8.2 °C 1021.6 hPa Calm     74 % 0.0 mm 531.0 W/m2 CLR
10:51 13.2 °C 8.4 °C 1021.6 hPa Calm     73 % 0.0 mm 396.0 W/m2 CLR
10:56 13.5 °C 8.1 °C 1021.2 hPa Calm     70 % 0.0 mm 452.0 W/m2 CLR
11:01 13.9 °C 8.5 °C 1021.2 hPa Calm     70 % 0.0 mm 559.0 W/m2 CLR
11:06 14.5 °C 8.2 °C 1021.2 hPa Calm     66 % 0.0 mm 733.0 W/m2 CLR
11:11 14.9 °C 8.4 °C 1021.2 hPa Calm     65 % 0.0 mm 724.0 W/m2 CLR
11:16 15.6 °C 8.6 °C 1020.9 hPa Calm     63 % 0.0 mm 640.0 W/m2 CLR
11:21 15.8 °C 7.6 °C 1020.9 hPa NW 20.4 km/h 20.4 km/h 58 % 0.0 mm 608.0 W/m2 CLR
11:26 15.7 °C 7.2 °C 1020.9 hPa NW 13.0 km/h 13.0 km/h 57 % 0.0 mm 387.0 W/m2 CLR
11:31 15.4 °C 7.4 °C 1020.9 hPa WNW 14.8 km/h 14.8 km/h 59 % 0.0 mm 204.0 W/m2 CLR
11:36 15.1 °C 7.2 °C 1020.9 hPa NNW 14.8 km/h 14.8 km/h 59 % 0.0 mm 408.0 W/m2 CLR
11:41 14.9 °C 6.7 °C 1020.9 hPa NW 16.7 km/h 16.7 km/h 58 % 0.0 mm 345.0 W/m2 CLR
11:46 14.9 °C 6.7 °C 1020.9 hPa NW 16.1 km/h 16.1 km/h 58 % 0.0 mm 248.0 W/m2 CLR
11:51 14.8 °C 6.9 °C 1020.9 hPa NNW 14.8 km/h 14.8 km/h 59 % 0.0 mm 195.0 W/m2 CLR
11:56 14.8 °C 6.8 °C 1020.9 hPa NW 11.1 km/h 11.1 km/h 59 % 0.0 mm 353.0 W/m2 CLR
12:01 14.9 °C 7.0 °C 1020.9 hPa NNW 18.5 km/h 18.5 km/h 59 % 0.0 mm 548.0 W/m2 CLR
12:06 15.2 °C 7.0 °C 1020.9 hPa NW 11.1 km/h 11.1 km/h 58 % 0.0 mm 323.0 W/m2 CLR
12:11 15.3 °C 7.1 °C 1020.5 hPa NW 9.7 km/h 9.7 km/h 58 % 0.0 mm 251.0 W/m2 CLR
12:16 15.3 °C 7.1 °C 1020.5 hPa NW 9.7 km/h 9.7 km/h 58 % 0.0 mm 478.0 W/m2 CLR
12:21 15.4 °C 6.7 °C 1020.5 hPa NNW 9.3 km/h 9.3 km/h 56 % 0.0 mm 475.0 W/m2 CLR
12:26 15.4 °C 6.7 °C 1020.5 hPa WNW 9.7 km/h 9.7 km/h 56 % 0.0 mm 529.0 W/m2 CLR
12:31 15.4 °C 6.7 °C 1020.5 hPa NW 3.7 km/h 3.7 km/h 56 % 0.0 mm 227.0 W/m2 CLR
12:36 15.7 °C 7.4 °C 1020.2 hPa West 9.3 km/h 9.3 km/h 58 % 0.0 mm 689.0 W/m2 CLR
12:41 15.9 °C 6.9 °C 1020.2 hPa NW 5.6 km/h 5.6 km/h 55 % 0.0 mm 679.0 W/m2 CLR
12:46 16.1 °C 7.1 °C 1020.2 hPa NW 5.6 km/h 5.6 km/h 55 % 0.0 mm 580.0 W/m2 CLR
12:51 16.3 °C 7.6 °C 1020.2 hPa WNW 9.3 km/h 9.3 km/h 56 % 0.0 mm 666.0 W/m2 CLR
12:56 16.6 °C 7.2 °C 1019.9 hPa WNW 9.3 km/h 9.3 km/h 54 % 0.0 mm 664.0 W/m2 CLR
13:01 16.7 °C 6.8 °C 1019.9 hPa NNE 3.7 km/h   52 % 0.0 mm 663.0 W/m2 CLR
13:06 16.9 °C 7.2 °C 1019.9 hPa NE 5.6 km/h 5.6 km/h 53 % 0.0 mm 666.0 W/m2 CLR
13:16 17.1 °C 7.4 °C 1019.5 hPa NE 5.6 km/h   53 % 0.0 mm 664.0 W/m2 CLR
13:21 17.2 °C 7.5 °C 1019.2 hPa Calm   0.3 km/h 53 % 0.0 mm 668.0 W/m2 CLR
13:26 17.4 °C 7.7 °C 1019.2 hPa ENE 7.4 km/h 7.4 km/h 53 % 0.0 mm 663.0 W/m2 CLR
13:31 17.7 °C 7.4 °C 1019.2 hPa Calm     51 % 0.0 mm 661.0 W/m2 CLR
13:36 17.7 °C 7.4 °C 1019.2 hPa Calm     51 % 0.0 mm 661.0 W/m2 CLR
13:41 17.6 °C 7.6 °C 1018.8 hPa ENE 5.6 km/h 5.6 km/h 52 % 0.0 mm 659.0 W/m2 CLR
13:46 17.6 °C 7.3 °C 1018.8 hPa ENE 6.4 km/h 6.4 km/h 51 % 0.0 mm 656.0 W/m2 CLR
13:51 17.8 °C 7.8 °C 1018.8 hPa East 8.0 km/h 8.0 km/h 52 % 0.0 mm 654.0 W/m2 CLR
13:56 17.8 °C 7.5 °C 1018.5 hPa East 6.4 km/h 6.4 km/h 51 % 0.0 mm 650.0 W/m2 CLR
14:01 17.6 °C 7.3 °C 1018.5 hPa ESE 6.4 km/h 6.4 km/h 51 % 0.0 mm 647.0 W/m2 CLR
14:11 17.9 °C 7.9 °C 1018.5 hPa NE 11.3 km/h 11.3 km/h 52 % 0.0 mm 640.0 W/m2 CLR
14:16 18.0 °C 7.4 °C 1018.2 hPa Calm     50 % 0.0 mm 633.0 W/m2 CLR
14:21 18.3 °C 7.7 °C 1018.2 hPa Calm     50 % 0.0 mm 629.0 W/m2 CLR
14:26 18.3 °C 7.4 °C 1018.2 hPa SE 5.6 km/h 5.6 km/h 49 % 0.0 mm 624.0 W/m2 CLR
14:31 18.3 °C 7.7 °C 1018.2 hPa NE 7.4 km/h 7.4 km/h 50 % 0.0 mm 617.0 W/m2 CLR
14:36 18.3 °C 7.7 °C 1018.2 hPa ENE 9.3 km/h 9.3 km/h 50 % 0.0 mm 610.0 W/m2 CLR
14:41 18.5 °C 7.9 °C 1017.8 hPa NE 8.0 km/h 8.0 km/h 50 % 0.0 mm 605.0 W/m2 CLR
14:46 18.4 °C 7.5 °C 1017.8 hPa Calm     49 % 0.0 mm 599.0 W/m2 CLR
14:51 18.4 °C 7.2 °C 1017.8 hPa Calm     48 % 0.0 mm 591.0 W/m2 CLR
14:56 18.5 °C 7.6 °C 1017.5 hPa Calm     49 % 0.0 mm 582.0 W/m2 CLR
15:01 18.7 °C 8.1 °C 1017.5 hPa NNE 11.3 km/h 11.3 km/h 50 % 0.0 mm 573.0 W/m2 CLR
15:06 18.6 °C 7.4 °C 1017.5 hPa NNE 9.3 km/h 9.3 km/h 48 % 0.0 mm 564.0 W/m2 CLR
15:07 18.6 °C 7.4 °C 1017.5 hPa NNE 7.4 km/h 7.4 km/h 48 % 0.0 mm 563.0 W/m2 CLR
15:12 18.5 °C 7.3 °C 1017.5 hPa North 8.0 km/h 8.0 km/h 48 % 0.0 mm 554.0 W/m2 CLR
15:17 18.6 °C 7.3 °C 1017.2 hPa NE 9.3 km/h 9.3 km/h 48 % 0.0 mm 545.0 W/m2 CLR
15:22 18.7 °C 7.5 °C 1017.2 hPa NNE 5.6 km/h 5.6 km/h 48 % 0.0 mm 534.0 W/m2 CLR
15:27 18.9 °C 7.4 °C 1017.2 hPa ENE 5.6 km/h 5.6 km/h 47 % 0.0 mm 522.0 W/m2 CLR
15:32 19.0 °C 7.1 °C 1017.2 hPa Calm     46 % 0.0 mm 512.0 W/m2 CLR
15:37 18.9 °C 7.4 °C 1017.2 hPa NE 7.4 km/h 7.4 km/h 47 % 0.0 mm 501.0 W/m2 CLR
15:42 19.0 °C 7.7 °C 1017.2 hPa Calm     48 % 0.0 mm 490.0 W/m2 CLR
15:47 19.2 °C 7.3 °C 1017.2 hPa NE 11.1 km/h 11.1 km/h 46 % 0.0 mm 480.0 W/m2 CLR
15:52 19.1 °C 7.2 °C 1017.2 hPa NE 13.0 km/h 13.0 km/h 46 % 0.0 mm 466.0 W/m2 CLR
15:57 19.0 °C 7.4 °C 1017.2 hPa NE 11.3 km/h 11.3 km/h 47 % 0.0 mm 455.0 W/m2 CLR
16:02 19.0 °C 7.4 °C 1017.2 hPa NNE 13.0 km/h 13.0 km/h 47 % 0.0 mm 443.0 W/m2 CLR
16:07 18.9 °C 7.0 °C 1017.2 hPa ENE 7.4 km/h 7.4 km/h 46 % 0.0 mm 432.0 W/m2 CLR
16:12 19.0 °C 7.7 °C 1016.8 hPa North 5.6 km/h 5.6 km/h 48 % 0.0 mm 418.0 W/m2 CLR
16:17 19.1 °C 7.2 °C 1016.8 hPa NE 5.6 km/h 5.6 km/h 46 % 0.0 mm 404.0 W/m2 CLR
16:22 19.2 °C 7.0 °C 1016.8 hPa ENE 3.7 km/h 3.7 km/h 45 % 0.0 mm 392.0 W/m2 CLR
16:27 19.3 °C 7.1 °C 1016.8 hPa NNE 9.3 km/h 9.3 km/h 45 % 0.0 mm 380.0 W/m2 CLR
16:32 19.2 °C 6.9 °C 1016.8 hPa NE 12.9 km/h 12.9 km/h 45 % 0.0 mm 367.0 W/m2 CLR
16:37 19.0 °C 6.8 °C 1016.8 hPa NNE 13.0 km/h 13.0 km/h 45 % 0.0 mm 352.0 W/m2 CLR
16:42 18.9 °C 6.7 °C 1016.8 hPa NE 9.3 km/h 9.3 km/h 45 % 0.0 mm 338.0 W/m2 CLR
16:47 18.9 °C 6.7 °C 1016.8 hPa ENE 9.3 km/h 9.3 km/h 45 % 0.0 mm 323.0 W/m2 CLR
16:52 19.0 °C 6.4 °C 1016.5 hPa Calm     44 % 0.0 mm 309.0 W/m2 CLR
16:57 19.0 °C 6.4 °C 1016.5 hPa NE 5.6 km/h 5.6 km/h 44 % 0.0 mm 292.0 W/m2 CLR
17:02 19.1 °C 6.8 °C 1016.5 hPa NE 5.6 km/h 5.6 km/h 45 % 0.0 mm 279.0 W/m2 CLR
17:07 19.1 °C 6.8 °C 1016.5 hPa NE 9.7 km/h 9.7 km/h 45 % 0.0 mm 264.0 W/m2 CLR
17:12 19.0 °C 6.4 °C 1016.5 hPa East 6.4 km/h 6.4 km/h 44 % 0.0 mm 244.0 W/m2 CLR
17:18 18.8 °C 6.3 °C 1016.5 hPa ENE 5.6 km/h 5.6 km/h 44 % 0.0 mm 229.0 W/m2 CLR
17:22 18.7 °C 6.8 °C 1016.5 hPa ENE 5.6 km/h 5.6 km/h 46 % 0.0 mm 213.0 W/m2 CLR
17:28 18.7 °C 6.8 °C 1016.5 hPa East 5.6 km/h   46 % 0.0 mm 195.0 W/m2 CLR
17:33 18.6 °C 6.7 °C 1016.1 hPa ENE 8.0 km/h 8.0 km/h 46 % 0.0 mm 176.0 W/m2 CLR
17:38 18.5 °C 6.7 °C 1016.1 hPa East 1.6 km/h 1.6 km/h 46 % 0.0 mm 158.0 W/m2 CLR
17:43 18.5 °C 7.6 °C 1016.1 hPa ENE 9.7 km/h 9.7 km/h 49 % 0.0 mm 141.0 W/m2 CLR
17:48 18.4 °C 7.8 °C 1016.1 hPa SE 8.0 km/h 8.0 km/h 50 % 0.0 mm 125.0 W/m2 CLR
17:53 18.3 °C 8.0 °C 1016.5 hPa East 9.7 km/h 9.7 km/h 51 % 0.0 mm 107.0 W/m2 CLR
17:58 18.2 °C 8.4 °C 1016.1 hPa SE 13.0 km/h 13.0 km/h 53 % 0.0 mm 88.0 W/m2 CLR
18:03 18.1 °C 8.6 °C 1016.1 hPa SE 11.1 km/h 11.1 km/h 54 % 0.0 mm 72.0 W/m2 FEW
18:08 17.9 °C 8.7 °C 1016.1 hPa ESE 11.1 km/h 11.1 km/h 55 % 0.0 mm 54.0 W/m2 SCT
18:13 17.7 °C 8.8 °C 1016.1 hPa ESE 11.1 km/h 11.1 km/h 56 % 0.0 mm 49.0 W/m2 SCT
18:18 17.6 °C 8.7 °C 1016.5 hPa SE 11.3 km/h 11.3 km/h 56 % 0.0 mm 39.0 W/m2 BKN
18:23 17.4 °C 8.8 °C 1016.5 hPa ESE 11.1 km/h 11.1 km/h 57 % 0.0 mm 25.0 W/m2 BKN
18:28 17.2 °C 8.9 °C 1016.5 hPa SE 9.3 km/h 9.3 km/h 58 % 0.0 mm 21.0 W/m2 BKN
18:33 16.9 °C 8.6 °C 1016.5 hPa SE 7.4 km/h 7.4 km/h 58 % 0.0 mm 16.0 W/m2 BKN
18:38 16.7 °C 8.7 °C 1016.5 hPa SSE 5.6 km/h 5.6 km/h 59 % 0.0 mm 11.0 W/m2 BKN
18:43 16.5 °C 8.7 °C 1016.5 hPa Calm     60 % 0.0 mm 9.0 W/m2 BKN
18:48 16.3 °C 8.8 °C 1016.5 hPa Calm     61 % 0.0 mm 5.0 W/m2 OVC
18:53 16.2 °C 8.9 °C 1016.5 hPa Calm     62 % 0.0 mm 0.0 W/m2 OVC
18:58 16.0 °C 8.9 °C 1016.5 hPa Calm     63 % 0.0 mm 0.0 W/m2 OVC
19:03 15.8 °C 9.1 °C 1016.5 hPa Calm     64 % 0.0 mm 0.0 W/m2 CLR
19:08 15.7 °C 9.2 °C 1016.5 hPa Calm     65 % 0.0 mm 0.0 W/m2 CLR
19:13 15.5 °C 9.4 °C 1016.5 hPa ESE 5.6 km/h 5.6 km/h 67 % 0.0 mm 0.0 W/m2 CLR
19:18 15.4 °C 9.7 °C 1016.8 hPa ESE 1.6 km/h 1.6 km/h 69 % 0.0 mm 0.0 W/m2 CLR
19:23 15.3 °C 9.8 °C 1016.8 hPa ESE 5.6 km/h 5.6 km/h 70 % 0.0 mm 0.0 W/m2 CLR
19:28 15.2 °C 9.7 °C 1016.8 hPa ESE 5.6 km/h 5.6 km/h 70 % 0.0 mm 0.0 W/m2 CLR
19:33 15.1 °C 9.8 °C 1016.8 hPa Calm     71 % 0.0 mm 0.0 W/m2 CLR
19:38 14.9 °C 9.7 °C 1016.8 hPa Calm     71 % 0.0 mm 0.0 W/m2 CLR
19:43 14.6 °C 9.4 °C 1016.8 hPa Calm     71 % 0.0 mm 0.0 W/m2 CLR
19:48 14.3 °C 9.3 °C 1016.8 hPa Calm     72 % 0.0 mm 0.0 W/m2 CLR
19:53 14.1 °C 9.1 °C 1016.8 hPa Calm     72 % 0.0 mm 0.0 W/m2 CLR
19:58 13.9 °C 9.1 °C 1016.8 hPa Calm     73 % 0.0 mm 0.0 W/m2 CLR
20:03 13.8 °C 9.3 °C 1016.8 hPa Calm     74 % 0.0 mm 0.0 W/m2 CLR
20:08 13.8 °C 9.3 °C 1017.2 hPa Calm     74 % 0.0 mm 0.0 W/m2 CLR
20:13 13.9 °C 9.2 °C 1016.8 hPa SSE 1.9 km/h 1.9 km/h 73 % 0.0 mm 0.0 W/m2 CLR
20:18 14.0 °C 8.8 °C 1016.8 hPa Calm     71 % 0.0 mm 0.0 W/m2 CLR
20:23 14.0 °C 8.8 °C 1016.8 hPa Calm     71 % 0.0 mm 0.0 W/m2 CLR
20:28 14.0 °C 8.6 °C 1017.2 hPa Calm     70 % 0.0 mm 0.0 W/m2 CLR
20:33 13.8 °C 8.4 °C 1016.8 hPa Calm     70 % 0.0 mm 0.0 W/m2 CLR
20:38 13.6 °C 8.4 °C 1016.8 hPa South 5.6 km/h 5.6 km/h 71 % 0.0 mm 0.0 W/m2 CLR
20:43 13.5 °C 8.3 °C 1016.8 hPa South 5.6 km/h 5.6 km/h 71 % 0.0 mm 0.0 W/m2 CLR
20:48 13.5 °C 8.1 °C 1016.8 hPa South 7.4 km/h 7.4 km/h 70 % 0.0 mm 0.0 W/m2 CLR
20:53 13.6 °C 8.0 °C 1016.8 hPa Calm     69 % 0.0 mm 0.0 W/m2 CLR
20:58 13.4 °C 8.0 °C 1016.8 hPa Calm     70 % 0.0 mm 0.0 W/m2 CLR
21:03 13.2 °C 7.9 °C 1016.8 hPa Calm     70 % 0.0 mm 0.0 W/m2 CLR
21:08 13.2 °C 7.8 °C 1016.8 hPa Calm     70 % 0.0 mm 0.0 W/m2 CLR
21:13 12.9 °C 7.8 °C 1016.5 hPa Calm     71 % 0.0 mm 0.0 W/m2 CLR
21:18 12.6 °C 7.7 °C 1016.8 hPa Calm     72 % 0.0 mm 0.0 W/m2 CLR
21:23 12.4 °C 7.7 °C 1016.8 hPa Calm     73 % 0.0 mm 0.0 W/m2 CLR
21:28 12.2 °C 7.4 °C 1016.8 hPa Calm     73 % 0.0 mm 0.0 W/m2 CLR
21:33 11.9 °C 7.4 °C 1016.8 hPa Calm     74 % 0.0 mm 0.0 W/m2 CLR
21:38 11.7 °C 7.4 °C 1016.8 hPa Calm     75 % 0.0 mm 0.0 W/m2 CLR
21:43 11.4 °C 7.3 °C 1016.8 hPa Calm     76 % 0.0 mm 0.0 W/m2 CLR
21:48 11.1 °C 7.4 °C 1016.8 hPa Calm     78 % 0.0 mm 0.0 W/m2 CLR
21:53 10.8 °C 7.3 °C 1016.8 hPa Calm     79 % 0.0 mm 0.0 W/m2 CLR
21:55 10.7 °C 7.2 °C 1016.8 hPa Calm     79 % 0.0 mm 0.0 W/m2 CLR
22:00 10.5 °C 7.2 °C 1016.8 hPa Calm     80 % 0.0 mm 0.0 W/m2 CLR
22:05 10.2 °C 6.9 °C 1016.8 hPa Calm     80 % 0.0 mm 0.0 W/m2 CLR
22:10 9.9 °C 6.8 °C 1016.8 hPa Calm     81 % 0.0 mm 0.0 W/m2 CLR
22:15 9.7 °C 6.6 °C 1016.8 hPa Calm     81 % 0.0 mm 0.0 W/m2 CLR
22:20 9.4 °C 6.4 °C 1016.8 hPa Calm     82 % 0.0 mm 0.0 W/m2 CLR
22:25 9.3 °C 6.4 °C 1016.8 hPa Calm     82 % 0.0 mm 0.0 W/m2 CLR
22:30 9.2 °C 6.4 °C 1016.8 hPa Calm     83 % 0.0 mm 0.0 W/m2 CLR
22:35 9.1 °C 6.3 °C 1016.8 hPa Calm     83 % 0.0 mm 0.0 W/m2 CLR
22:40 8.9 °C 6.3 °C 1016.8 hPa Calm     84 % 0.0 mm 0.0 W/m2 CLR
22:46 8.8 °C 6.2 °C 1016.8 hPa Calm     84 % 0.0 mm 0.0 W/m2 CLR
22:51 8.6 °C 6.1 °C 1016.8 hPa Calm     84 % 0.0 mm 0.0 W/m2 CLR
22:56 8.5 °C 5.9 °C 1016.8 hPa Calm     84 % 0.0 mm 0.0 W/m2 CLR
23:01 8.3 °C 5.7 °C 1016.8 hPa Calm     84 % 0.0 mm 0.0 W/m2 CLR
23:06 8.2 °C 5.6 °C 1016.8 hPa Calm     84 % 0.0 mm 0.0 W/m2 CLR
23:11 8.0 °C 5.6 °C 1016.8 hPa Calm     85 % 0.0 mm 0.0 W/m2 CLR
23:16 7.9 °C 5.5 °C 1016.8 hPa Calm     85 % 0.0 mm 0.0 W/m2 CLR
23:21 7.8 °C 5.6 °C 1016.8 hPa Calm     86 % 0.0 mm 0.0 W/m2 CLR
23:26 7.7 °C 5.5 °C 1016.8 hPa Calm     86 % 0.0 mm 0.0 W/m2 CLR
23:31 7.7 °C 5.7 °C 1016.8 hPa Calm     87 % 0.0 mm 0.0 W/m2 CLR
23:36 7.6 °C 5.4 °C 1016.8 hPa Calm     86 % 0.0 mm 0.0 W/m2 CLR
23:41 7.5 °C 5.3 °C 1016.8 hPa Calm     86 % 0.0 mm 0.0 W/m2 CLR
23:46 7.3 °C 5.2 °C 1016.8 hPa Calm     86 % 0.0 mm 0.0 W/m2 CLR
23:51 7.2 °C 5.2 °C 1016.8 hPa Calm     87 % 0.0 mm 0.0 W/m2 CLR
23:56 7.2 °C 5.2 °C 1016.8 hPa Calm     87 % 0.0 mm 0.0 W/m2 CLR
Lo Temps de Massalio
Compliments of Weather Underground - 1.25 mb